Time;durP1;ratioP1;P1;durP2;ratioP2;P2;SDS_P1;SDS_P2;PMS_P1;PMS_P2;Temp;Humidity;BMP_temperature;BMP_pressure;BME280_temperature;BME280_humidity;BME280_pressure;Samples;Min_cycle;Max_cycle;Signal;HPM_P1;HPM_P2
2023/04/30 00:02:13;;;;;;;4.80;2.58;;;6.90;99.90;;;;;;5050352;28;20413;-75
2023/04/30 00:04:38;;;;;;;7.70;3.13;;;6.90;99.90;;;;;;5051608;28;20416;-75
2023/04/30 00:07:04;;;;;;;6.60;2.90;;;6.90;99.90;;;;;;5050106;28;20120;-75
2023/04/30 00:09:30;;;;;;;8.85;3.03;;;6.90;99.90;;;;;;5050058;28;20052;-75
2023/04/30 00:11:55;;;;;;;7.07;2.90;;;6.90;99.90;;;;;;5051574;28;20276;-75
2023/04/30 00:14:21;;;;;;;5.40;3.25;;;6.90;99.90;;;;;;5050149;28;20408;-75
2023/04/30 00:16:46;;;;;;;5.20;2.95;;;6.80;99.90;;;;;;5050026;28;20451;-75
2023/04/30 00:19:12;;;;;;;5.78;2.90;;;6.70;99.90;;;;;;5050045;28;20056;-75
2023/04/30 00:21:37;;;;;;;5.03;3.00;;;6.60;99.90;;;;;;5050330;28;20044;-75
2023/04/30 00:24:03;;;;;;;4.43;3.00;;;6.50;99.90;;;;;;5049909;28;20037;-75
2023/04/30 00:26:29;;;;;;;7.75;3.03;;;6.30;99.90;;;;;;5033444;28;20129;-75
2023/04/30 00:28:54;;;;;;;6.75;3.00;;;6.30;99.90;;;;;;5049782;28;20522;-75
2023/04/30 00:31:20;;;;;;;7.60;3.10;;;6.20;99.90;;;;;;5051192;28;20040;-75
2023/04/30 00:33:45;;;;;;;5.65;3.35;;;6.20;99.90;;;;;;5051169;28;20105;-75
2023/04/30 00:36:11;;;;;;;6.18;2.90;;;6.20;99.90;;;;;;5051008;28;20041;-75
2023/04/30 00:38:36;;;;;;;7.00;3.40;;;6.20;99.90;;;;;;5049833;28;20404;-75
2023/04/30 00:41:03;;;;;;;6.57;3.10;;;6.20;99.90;;;;;;5049886;28;20060;-75
2023/04/30 00:43:28;;;;;;;5.78;3.20;;;6.20;99.90;;;;;;5049650;28;20044;-75
2023/04/30 00:45:54;;;;;;;6.28;3.35;;;6.10;99.90;;;;;;5033193;28;20048;-75
2023/04/30 00:48:20;;;;;;;3.95;2.83;;;6.10;99.90;;;;;;5049677;28;20102;-75
2023/04/30 00:50:45;;;;;;;5.43;2.92;;;6.10;99.90;;;;;;5050931;28;20045;-75
2023/04/30 00:53:12;;;;;;;7.38;3.17;;;5.90;99.90;;;;;;5049677;28;20405;-75
2023/04/30 00:55:39;;;;;;;5.45;2.83;;;5.80;99.90;;;;;;5053448;28;20036;-75
2023/04/30 00:58:06;;;;;;;5.10;2.72;;;5.70;99.90;;;;;;5059143;28;20041;-75
2023/04/30 01:00:33;;;;;;;5.13;2.72;;;5.70;99.90;;;;;;5049374;28;20041;-75
2023/04/30 01:02:59;;;;;;;5.65;2.67;;;5.70;99.90;;;;;;5049605;28;20095;-75
2023/04/30 01:05:25;;;;;;;5.18;2.90;;;5.70;99.90;;;;;;5049543;28;20048;-75
2023/04/30 01:07:53;;;;;;;4.20;2.90;;;5.70;99.90;;;;;;5049474;28;20045;-75
2023/04/30 01:10:20;;;;;;;5.28;3.30;;;5.70;99.90;;;;;;5049551;28;20041;-75
2023/04/30 01:12:48;;;;;;;6.50;3.10;;;5.70;99.90;;;;;;5049586;28;20101;-75
2023/04/30 01:15:23;;;;;;;6.05;3.42;;;5.70;99.90;;;;;;5049490;28;20045;-75
2023/04/30 01:18:19;;;;;;;8.15;3.33;;;5.70;99.90;;;;;;5032601;28;20068;-75
2023/04/30 01:21:03;;;;;;;5.95;3.08;;;5.70;99.90;;;;;;5049439;28;20566;-75
2023/04/30 01:23:33;;;;;;;6.47;3.17;;;5.70;99.90;;;;;;5050737;28;20045;-75
2023/04/30 01:26:17;;;;;;;5.97;3.17;;;5.70;99.90;;;;;;5049572;28;20056;-74
2023/04/30 01:28:44;;;;;;;7.15;3.15;;;5.80;99.90;;;;;;5050875;28;20526;-75
2023/04/30 01:31:17;;;;;;;8.70;4.57;;;5.80;99.90;;;;;;5049188;28;20056;-75
2023/04/30 01:33:42;;;;;;;13.90;5.80;;;5.80;99.90;;;;;;5050598;28;20037;-74
2023/04/30 01:36:28;;;;;;;9.15;5.25;;;5.90;99.90;;;;;;5050439;28;20519;-75
2023/04/30 01:39:15;;;;;;;8.38;4.60;;;5.80;99.90;;;;;;5048922;28;20122;-75
2023/04/30 01:42:09;;;;;;;8.57;4.32;;;5.80;99.90;;;;;;5049200;28;20041;-75
2023/04/30 01:44:56;;;;;;;6.03;3.45;;;5.90;99.90;;;;;;5049143;28;20501;-75
2023/04/30 01:47:34;;;;;;;7.15;3.47;;;5.90;99.90;;;;;;5050308;28;20084;-75
2023/04/30 01:50:14;;;;;;;5.18;3.28;;;5.80;99.90;;;;;;5049004;28;20041;-75
2023/04/30 01:52:51;;;;;;;4.75;3.30;;;5.80;99.90;;;;;;5049398;28;20045;-75
2023/04/30 01:55:55;;;;;;;4.22;2.92;;;5.80;99.90;;;;;;5049971;28;20080;-74
2023/04/30 01:58:23;;;;;;;4.85;2.60;;;5.90;99.90;;;;;;5057335;28;20107;-74
2023/04/30 02:00:49;;;;;;;4.78;2.33;;;5.90;99.90;;;;;;5048961;28;20045;-74
2023/04/30 02:03:15;;;;;;;5.60;3.00;;;5.90;99.90;;;;;;5051877;28;20045;-74
2023/04/30 02:05:40;;;;;;;5.78;3.00;;;5.80;99.90;;;;;;5052494;28;20051;-75
2023/04/30 02:08:06;;;;;;;4.32;3.20;;;5.90;99.90;;;;;;5052175;28;20045;-75
2023/04/30 02:10:31;;;;;;;4.55;3.30;;;5.90;99.90;;;;;;5052416;28;20396;-75
2023/04/30 02:12:57;;;;;;;7.85;3.50;;;6.00;99.90;;;;;;5052262;28;20579;-74
2023/04/30 02:15:23;;;;;;;7.22;3.47;;;6.10;99.90;;;;;;5053716;28;20041;-74
2023/04/30 02:17:48;;;;;;;6.43;3.45;;;6.10;99.90;;;;;;5052070;28;20132;-75
2023/04/30 02:20:14;;;;;;;4.70;3.15;;;6.10;99.90;;;;;;5052355;28;20508;-75
2023/04/30 02:22:40;;;;;;;7.20;3.40;;;6.10;99.90;;;;;;5052198;28;20469;-74
2023/04/30 02:25:05;;;;;;;6.38;3.50;;;6.00;99.90;;;;;;5035809;28;20409;-74
2023/04/30 02:27:32;;;;;;;5.07;3.42;;;6.00;99.90;;;;;;5051962;28;20033;-75
2023/04/30 02:29:58;;;;;;;6.05;3.75;;;6.10;99.90;;;;;;5053350;28;20076;-75
2023/04/30 02:32:24;;;;;;;5.80;3.30;;;6.00;99.90;;;;;;5052197;28;20045;-75
2023/04/30 02:34:49;;;;;;;6.25;3.30;;;6.00;99.90;;;;;;5051886;28;20040;-75
2023/04/30 02:37:15;;;;;;;5.40;3.30;;;6.00;99.90;;;;;;5051961;28;20044;-75
2023/04/30 02:39:40;;;;;;;6.75;3.58;;;6.10;99.90;;;;;;5051597;28;20469;-75
2023/04/30 02:42:07;;;;;;;3.88;2.80;;;6.10;99.90;;;;;;5051859;28;20040;-75
2023/04/30 02:44:34;;;;;;;6.45;3.30;;;6.20;99.90;;;;;;5051842;28;20387;-75
2023/04/30 02:47:01;;;;;;;7.22;3.13;;;6.20;99.90;;;;;;5051916;28;20429;-74
2023/04/30 02:49:27;;;;;;;4.18;3.00;;;6.20;99.90;;;;;;5051572;28;20045;-74
2023/04/30 02:51:53;;;;;;;5.28;3.10;;;6.20;99.90;;;;;;5034997;28;20048;-74
2023/04/30 02:54:18;;;;;;;6.45;3.58;;;6.30;99.90;;;;;;5051495;28;20041;-75
2023/04/30 02:56:46;;;;;;;5.30;3.28;;;6.20;99.90;;;;;;5064541;28;20044;-75
2023/04/30 02:59:11;;;;;;;5.65;3.70;;;6.30;99.90;;;;;;5052102;28;20060;-75
2023/04/30 03:01:37;;;;;;;4.38;2.95;;;6.30;99.90;;;;;;5052904;28;20412;-74
2023/04/30 03:04:03;;;;;;;5.88;2.80;;;6.40;99.90;;;;;;5051318;28;20037;-74
2023/04/30 03:06:30;;;;;;;5.90;3.25;;;6.40;99.90;;;;;;5051416;28;20535;-74
2023/04/30 03:08:55;;;;;;;4.28;3.30;;;6.40;99.90;;;;;;5050989;28;20124;-74
2023/04/30 03:11:21;;;;;;;8.55;4.10;;;6.40;99.90;;;;;;5052684;28;20171;-74
2023/04/30 03:13:50;;;;;;;7.78;3.70;;;6.40;99.90;;;;;;5050139;28;20040;-74
2023/04/30 03:16:17;;;;;;;4.07;2.88;;;6.40;99.90;;;;;;5052434;28;20120;-74
2023/04/30 03:18:43;;;;;;;5.43;3.42;;;6.40;99.90;;;;;;5051015;28;20102;-74
2023/04/30 03:21:08;;;;;;;4.72;3.00;;;6.40;99.90;;;;;;5051005;28;20068;-74
2023/04/30 03:23:34;;;;;;;5.07;3.47;;;6.50;99.90;;;;;;5051351;28;20095;-74
2023/04/30 03:26:00;;;;;;;7.75;3.53;;;6.40;99.90;;;;;;5050834;28;20048;-74
2023/04/30 03:28:25;;;;;;;4.20;3.40;;;6.40;99.90;;;;;;5052121;28;20116;-75
2023/04/30 03:30:51;;;;;;;7.85;3.05;;;6.40;99.90;;;;;;5051050;28;20040;-75
2023/04/30 03:33:17;;;;;;;5.63;2.83;;;6.40;99.90;;;;;;5050993;28;20055;-75
2023/04/30 03:35:42;;;;;;;4.60;2.95;;;6.30;99.90;;;;;;5050879;28;20045;-74
2023/04/30 03:38:08;;;;;;;4.03;2.90;;;6.30;99.90;;;;;;5051728;28;20037;-74
2023/04/30 03:40:33;;;;;;;5.78;2.55;;;6.30;99.90;;;;;;5050721;28;20439;-74
2023/04/30 03:42:59;;;;;;;4.95;3.03;;;6.30;99.90;;;;;;5051949;28;20124;-74
2023/04/30 03:45:24;;;;;;;5.32;2.97;;;6.30;99.90;;;;;;5050662;28;20037;-74
2023/04/30 03:47:51;;;;;;;4.32;2.75;;;6.20;99.90;;;;;;5051678;28;20041;-74
2023/04/30 03:50:17;;;;;;;3.85;2.95;;;6.20;99.90;;;;;;5050576;28;20076;-74
2023/04/30 03:52:43;;;;;;;3.00;2.50;;;6.20;99.90;;;;;;5051924;28;20479;-74
2023/04/30 03:55:09;;;;;;;6.30;3.33;;;6.20;99.90;;;;;;5050405;28;20068;-74
2023/04/30 03:57:35;;;;;;;3.70;3.28;;;6.10;99.90;;;;;;5050209;28;20072;-74
2023/04/30 04:00:01;;;;;;;6.53;3.50;;;6.00;99.90;;;;;;5050149;28;20092;-74
2023/04/30 04:02:27;;;;;;;6.15;3.55;;;6.00;99.90;;;;;;5050532;28;20045;-74
2023/04/30 04:04:52;;;;;;;3.75;3.25;;;5.90;99.90;;;;;;5050221;28;20045;-74
2023/04/30 04:07:18;;;;;;;5.13;3.55;;;5.80;99.90;;;;;;5050155;28;20098;-74
2023/04/30 04:09:43;;;;;;;6.18;3.50;;;5.80;99.90;;;;;;5050313;28;20044;-74
2023/04/30 04:12:09;;;;;;;4.93;3.40;;;5.70;99.90;;;;;;5050458;28;20048;-74
2023/04/30 04:14:35;;;;;;;4.00;3.08;;;5.70;99.90;;;;;;5050447;28;20044;-74
2023/04/30 04:17:00;;;;;;;3.45;2.78;;;5.60;99.90;;;;;;5050103;28;20041;-74
2023/04/30 04:19:26;;;;;;;4.30;3.60;;;5.50;99.90;;;;;;5049844;28;20356;-74
2023/04/30 04:21:52;;;;;;;4.45;3.70;;;5.50;99.90;;;;;;5050111;28;20041;-74
2023/04/30 04:24:18;;;;;;;5.95;3.72;;;5.50;99.90;;;;;;5051188;28;20404;-74
2023/04/30 04:26:43;;;;;;;5.93;3.47;;;5.50;99.90;;;;;;5049823;28;20562;-74
2023/04/30 04:29:11;;;;;;;5.05;3.60;;;5.40;99.90;;;;;;5050120;28;20037;-74
2023/04/30 04:31:37;;;;;;;6.00;4.10;;;5.40;99.90;;;;;;5051213;28;20059;-74
2023/04/30 04:34:03;;;;;;;5.53;3.92;;;5.40;99.90;;;;;;5049786;28;20053;-74
2023/04/30 04:36:30;;;;;;;5.30;3.55;;;5.40;99.90;;;;;;5049783;28;20041;-74
2023/04/30 04:39:00;;;;;;;6.70;3.70;;;5.40;99.90;;;;;;5049562;28;20060;-74
2023/04/30 04:41:29;;;;;;;4.53;3.17;;;5.40;99.90;;;;;;5050121;28;20409;-74
2023/04/30 04:43:58;;;;;;;5.60;3.70;;;5.40;99.90;;;;;;5051027;28;20041;-74
2023/04/30 04:46:24;;;;;;;7.03;3.78;;;5.50;99.90;;;;;;5050946;28;20093;-74
2023/04/30 04:48:50;;;;;;;5.53;3.47;;;5.50;99.90;;;;;;5049408;28;20496;-74
2023/04/30 04:51:16;;;;;;;4.32;3.40;;;5.60;99.90;;;;;;5049799;28;20053;-74
2023/04/30 04:53:41;;;;;;;3.78;2.95;;;5.60;99.90;;;;;;5050894;28;20044;-74
2023/04/30 04:56:07;;;;;;;5.43;3.20;;;5.60;99.90;;;;;;5057844;28;20051;-74
2023/04/30 04:58:33;;;;;;;8.20;3.63;;;5.60;99.90;;;;;;5056547;28;20126;-74
2023/04/30 05:00:59;;;;;;;6.68;3.78;;;5.70;99.90;;;;;;5049572;28;20103;-74
2023/04/30 05:03:26;;;;;;;6.15;3.60;;;5.80;99.90;;;;;;5049533;28;20045;-74
2023/04/30 05:05:51;;;;;;;7.03;3.55;;;5.90;99.90;;;;;;5049478;28;20088;-75
2023/04/30 05:08:17;;;;;;;5.45;3.38;;;5.90;99.90;;;;;;5049594;28;20496;-74
2023/04/30 05:10:43;;;;;;;5.60;3.08;;;5.90;99.90;;;;;;5049468;28;20098;-74
2023/04/30 05:13:09;;;;;;;4.85;3.28;;;6.00;99.90;;;;;;5050794;28;20037;-74
2023/04/30 05:15:34;;;;;;;5.57;4.03;;;6.20;99.90;;;;;;5049481;28;20125;-74
2023/04/30 05:18:00;;;;;;;8.32;4.00;;;6.30;99.90;;;;;;5050412;28;20061;-74
2023/04/30 05:20:26;;;;;;;6.07;3.85;;;6.40;99.90;;;;;;5049364;28;20059;-74
2023/04/30 05:22:51;;;;;;;8.40;4.43;;;6.50;99.90;;;;;;5049328;28;20121;-74
2023/04/30 05:25:17;;;;;;;8.48;4.55;;;6.70;99.90;;;;;;5049335;28;20580;-74
2023/04/30 05:27:42;;;;;;;8.15;5.03;;;6.80;99.90;;;;;;5049469;28;20114;-75
2023/04/30 05:30:08;;;;;;;10.10;4.95;;;6.80;99.90;;;;;;5049160;28;20041;-74
2023/04/30 05:32:34;;;;;;;7.57;4.30;;;6.90;99.90;;;;;;5049141;28;20075;-75
2023/04/30 05:35:00;;;;;;;7.63;4.35;;;6.90;99.90;;;;;;5049529;28;20072;-75
2023/04/30 05:37:26;;;;;;;10.15;4.68;;;7.00;99.90;;;;;;5052153;28;20052;-75
2023/04/30 05:39:52;;;;;;;9.13;4.82;;;7.10;99.90;;;;;;5054190;28;20124;-75
2023/04/30 05:42:18;;;;;;;10.40;5.13;;;7.10;99.90;;;;;;5053027;28;20162;-75
2023/04/30 05:44:44;;;;;;;8.93;5.05;;;7.20;99.90;;;;;;5052876;28;20041;-75
2023/04/30 05:47:10;;;;;;;13.15;6.07;;;7.30;99.90;;;;;;5052852;28;20128;-76
2023/04/30 05:49:36;;;;;;;11.25;6.72;;;7.30;99.90;;;;;;5052652;28;20502;-76
2023/04/30 05:52:02;;;;;;;17.35;7.68;;;7.30;99.90;;;;;;5052857;28;20041;-75
2023/04/30 05:54:28;;;;;;;14.85;8.23;;;7.40;99.90;;;;;;5052853;28;20056;-75
2023/04/30 05:56:54;;;;;;;14.50;7.82;;;7.40;99.90;;;;;;5066647;28;20044;-75
2023/04/30 05:59:19;;;;;;;13.02;7.55;;;7.40;99.90;;;;;;5052513;28;20041;-76
2023/04/30 06:01:45;;;;;;;13.60;6.85;;;7.50;99.90;;;;;;5052702;28;20049;-76
2023/04/30 06:04:11;;;;;;;10.73;6.93;;;7.50;99.90;;;;;;5052543;28;20040;-76
2023/04/30 06:06:36;;;;;;;9.80;5.38;;;7.60;99.90;;;;;;5052470;28;20047;-76
2023/04/30 06:09:02;;;;;;;17.35;5.72;;;7.70;99.90;;;;;;5052677;28;20081;-76
2023/04/30 06:11:29;;;;;;;12.27;4.72;;;7.70;99.90;;;;;;5052549;28;20079;-76
2023/04/30 06:13:54;;;;;;;10.07;4.40;;;7.80;99.90;;;;;;5052290;28;20043;-76
2023/04/30 06:16:20;;;;;;;8.23;4.25;;;7.80;99.90;;;;;;5052319;28;20053;-76
2023/04/30 06:18:46;;;;;;;9.65;4.22;;;7.90;99.90;;;;;;5052097;28;20121;-76
2023/04/30 06:21:11;;;;;;;7.65;3.90;;;7.90;99.90;;;;;;5035603;28;20051;-76
2023/04/30 06:23:37;;;;;;;7.45;3.67;;;8.00;99.90;;;;;;5052315;28;20041;-76
2023/04/30 06:26:02;;;;;;;8.38;3.80;;;8.10;99.90;;;;;;5052081;28;20045;-76
2023/04/30 06:28:28;;;;;;;10.93;4.10;;;8.30;99.90;;;;;;5053300;28;20497;-76
2023/04/30 06:30:54;;;;;;;7.20;3.67;;;8.50;99.90;;;;;;5052283;28;20116;-76
2023/04/30 06:33:20;;;;;;;10.85;3.80;;;8.70;99.90;;;;;;5052030;28;20041;-77
2023/04/30 06:35:46;;;;;;;10.43;4.50;;;9.00;99.90;;;;;;5053352;28;20049;-77
2023/04/30 06:38:12;;;;;;;9.23;3.65;;;9.20;99.90;;;;;;5051789;28;20048;-77
2023/04/30 06:40:38;;;;;;;8.18;3.60;;;9.30;99.90;;;;;;5053245;28;20072;-76
2023/04/30 06:43:04;;;;;;;12.07;4.00;;;9.40;99.90;;;;;;5035210;28;20090;-77
2023/04/30 06:45:30;;;;;;;11.93;3.85;;;9.50;99.90;;;;;;5053112;28;20037;-76
2023/04/30 06:47:56;;;;;;;13.90;3.65;;;9.60;99.90;;;;;;5051202;28;20183;-77
2023/04/30 06:50:22;;;;;;;11.77;3.40;;;9.60;99.90;;;;;;5052004;28;20048;-77
2023/04/30 06:52:47;;;;;;;7.88;3.33;;;9.60;99.90;;;;;;5051830;28;20067;-78
2023/04/30 06:55:13;;;;;;;10.27;3.17;;;9.50;99.90;;;;;;5053346;28;20118;-78
2023/04/30 06:57:39;;;;;;;8.57;2.80;;;9.50;99.90;;;;;;5064952;28;20033;-77
2023/04/30 07:00:05;;;;;;;10.77;3.05;;;9.50;99.90;;;;;;5051321;28;20053;-78
2023/04/30 07:02:31;;;;;;;10.52;2.92;;;9.40;99.90;;;;;;5052795;28;20404;-77
2023/04/30 07:04:57;;;;;;;10.65;2.78;;;9.40;99.90;;;;;;5051495;28;20041;-77
2023/04/30 07:07:22;;;;;;;15.27;3.00;;;9.50;99.90;;;;;;5052463;28;20146;-77
2023/04/30 07:09:49;;;;;;;7.07;2.70;;;9.60;99.90;;;;;;5051390;28;20507;-78
2023/04/30 07:12:14;;;;;;;11.90;2.75;;;9.60;99.90;;;;;;5051672;28;20053;-77
2023/04/30 07:14:40;;;;;;;8.20;2.72;;;9.70;99.90;;;;;;5052677;28;20036;-77
2023/04/30 07:17:06;;;;;;;6.25;2.70;;;9.80;99.90;;;;;;5051344;28;20041;-78
2023/04/30 07:19:31;;;;;;;9.40;2.80;;;9.90;99.90;;;;;;5050947;28;20108;-78
2023/04/30 07:21:57;;;;;;;9.80;3.10;;;9.90;99.90;;;;;;5051503;28;20056;-77
2023/04/30 07:24:22;;;;;;;7.80;2.70;;;10.00;99.90;;;;;;5051010;28;20044;-78
2023/04/30 07:26:48;;;;;;;8.68;2.50;;;10.00;99.90;;;;;;5051071;28;20496;-77
2023/04/30 07:29:14;;;;;;;5.75;2.17;;;10.10;99.90;;;;;;5050804;28;20107;-77
2023/04/30 07:31:39;;;;;;;7.78;2.25;;;10.20;99.90;;;;;;5052372;28;20497;-78
2023/04/30 07:34:05;;;;;;;6.40;2.65;;;10.20;99.90;;;;;;5052406;28;20090;-77
2023/04/30 07:36:30;;;;;;;7.63;2.53;;;10.40;99.90;;;;;;5052053;28;20028;-77
2023/04/30 07:38:56;;;;;;;6.97;2.47;;;10.50;99.90;;;;;;5050642;28;20037;-77
2023/04/30 07:41:23;;;;;;;13.55;3.00;;;10.50;99.90;;;;;;5050791;28;20041;-77
2023/04/30 07:43:49;;;;;;;8.68;2.22;;;10.50;99.90;;;;;;5051973;28;20040;-78
2023/04/30 07:46:14;;;;;;;10.38;2.67;;;10.50;99.90;;;;;;5051983;28;20047;-79
2023/04/30 07:48:40;;;;;;;7.00;2.60;;;10.50;99.90;;;;;;5051815;28;20037;-77
2023/04/30 07:51:05;;;;;;;8.07;2.60;;;10.50;99.90;;;;;;5034261;28;20124;-77
2023/04/30 07:53:31;;;;;;;7.93;2.30;;;10.60;99.90;;;;;;5050615;28;20036;-77
2023/04/30 07:55:57;;;;;;;9.13;2.60;;;10.90;99.90;;;;;;5057111;28;20079;-78
2023/04/30 07:58:22;;;;;;;10.32;2.50;;;11.20;99.90;;;;;;5057461;28;20136;-77
2023/04/30 08:00:48;;;;;;;9.90;2.55;;;11.40;99.90;;;;;;5049749;28;20037;-77
2023/04/30 08:03:13;;;;;;;12.02;2.40;;;11.40;99.90;;;;;;5050368;28;20066;-78
2023/04/30 08:05:40;;;;;;;4.93;2.40;;;11.50;99.90;;;;;;5050352;28;20045;-77
2023/04/30 08:08:06;;;;;;;8.27;2.35;;;11.70;99.90;;;;;;5033822;28;20045;-77
2023/04/30 08:10:31;;;;;;;8.40;2.50;;;11.90;99.90;;;;;;5051560;28;20041;-77
2023/04/30 08:12:57;;;;;;;11.10;2.22;;;11.90;99.90;;;;;;5051534;28;20033;-78
2023/04/30 08:15:23;;;;;;;6.85;2.05;;;12.00;99.90;;;;;;5051784;28;20048;-78
2023/04/30 08:17:50;;;;;;;8.15;2.85;;;12.00;99.90;;;;;;5049935;28;20120;-77
2023/04/30 08:20:16;;;;;;;9.52;2.65;;;12.00;99.90;;;;;;5050150;28;20428;-77
2023/04/30 08:22:42;;;;;;;9.23;3.05;;;12.10;99.90;;;;;;5051348;28;20496;-77
2023/04/30 08:25:10;;;;;;;8.15;2.30;;;12.10;99.90;;;;;;5050092;28;20036;-77
2023/04/30 08:27:36;;;;;;;12.70;3.00;;;12.10;99.90;;;;;;5049789;28;20531;-77
2023/04/30 08:30:02;;;;;;;8.25;2.33;;;12.10;99.90;;;;;;5050216;28;20044;-77
2023/04/30 08:32:28;;;;;;;11.60;2.65;;;12.20;99.90;;;;;;5049956;28;20049;-77
2023/04/30 08:34:54;;;;;;;6.85;2.30;;;12.10;99.90;;;;;;5051129;28;20091;-77
2023/04/30 08:37:19;;;;;;;8.25;2.42;;;12.10;99.90;;;;;;5049765;28;20037;-77
2023/04/30 08:39:45;;;;;;;9.88;2.88;;;12.40;99.90;;;;;;5049646;28;20471;-77
2023/04/30 08:42:13;;;;;;;8.63;2.90;;;12.40;99.90;;;;;;5049821;28;20044;-77
2023/04/30 08:44:42;;;;;;;7.32;2.38;;;12.50;99.90;;;;;;5049726;28;20086;-77
2023/04/30 08:47:13;;;;;;;9.85;2.80;;;12.60;99.90;;;;;;5051025;28;20448;-77
2023/04/30 08:49:39;;;;;;;8.88;2.63;;;12.50;99.90;;;;;;5049820;28;20040;-76
2023/04/30 08:52:06;;;;;;;8.32;2.65;;;12.60;99.90;;;;;;5049736;28;20092;-76
2023/04/30 08:54:34;;;;;;;7.18;2.83;;;12.70;99.90;;;;;;5049374;28;20040;-74
2023/04/30 08:57:00;;;;;;;10.18;3.90;;;12.90;99.90;;;;;;5063454;28;20050;-75
2023/04/30 08:59:26;;;;;;;10.75;2.90;;;13.10;99.90;;;;;;5049614;28;20077;-75
2023/04/30 09:01:51;;;;;;;8.18;3.17;;;13.30;99.90;;;;;;5051092;28;20067;-75
2023/04/30 09:04:17;;;;;;;6.88;2.72;;;13.40;99.90;;;;;;5049649;28;20044;-75
2023/04/30 09:06:43;;;;;;;6.03;2.60;;;13.40;99.90;;;;;;5049588;28;20045;-75
2023/04/30 09:09:13;;;;;;;8.90;3.05;;;13.50;99.90;;;;;;5049378;28;20314;-75
2023/04/30 09:11:39;;;;;;;10.45;3.28;;;13.50;99.90;;;;;;5051599;28;20069;-75
2023/04/30 09:14:05;;;;;;;9.32;2.88;;;13.60;99.90;;;;;;5053441;28;20084;-75
2023/04/30 09:16:48;;;;;;;8.82;2.88;;;13.60;99.90;;;;;;5053534;28;20052;-75
2023/04/30 09:19:25;;;;;;;10.40;2.75;;;13.70;99.90;;;;;;5054590;28;20091;-75
2023/04/30 09:21:51;;;;;;;9.38;2.30;;;13.70;99.90;;;;;;5053515;28;20094;-75
2023/04/30 09:24:16;;;;;;;7.45;2.70;;;13.70;99.90;;;;;;5053299;28;20037;-75
2023/04/30 09:26:42;;;;;;;7.00;2.30;;;14.00;99.90;;;;;;5053499;28;20120;-75
2023/04/30 09:29:09;;;;;;;7.05;2.30;;;14.20;99.90;;;;;;5053278;28;20041;-76
2023/04/30 09:31:36;;;;;;;5.63;2.25;;;14.10;99.90;;;;;;5053428;28;20075;-75
2023/04/30 09:34:02;;;;;;;6.38;2.17;;;14.10;99.90;;;;;;5036592;28;20049;-75
2023/04/30 09:36:28;;;;;;;7.40;2.30;;;14.20;99.90;;;;;;5054386;28;20369;-76
2023/04/30 09:38:54;;;;;;;10.73;2.70;;;14.10;99.90;;;;;;5052945;28;20408;-76
2023/04/30 09:41:26;;;;;;;7.32;2.30;;;14.00;99.90;;;;;;5053016;28;20049;-76
2023/04/30 09:43:55;;;;;;;4.78;2.20;;;13.80;99.90;;;;;;5053053;28;20094;-75
2023/04/30 09:46:28;;;;;;;8.30;2.28;;;13.90;99.90;;;;;;5052795;28;20496;-76
2023/04/30 09:48:59;;;;;;;7.43;2.47;;;14.10;99.90;;;;;;5054278;28;20052;-76
2023/04/30 09:51:26;;;;;;;6.82;2.42;;;14.20;99.90;;;;;;5054140;28;20120;-76
2023/04/30 09:53:52;;;;;;;8.50;3.30;;;14.30;99.90;;;;;;5052750;28;20052;-76
2023/04/30 09:56:23;;;;;;;7.13;2.35;;;14.50;99.90;;;;;;5062218;28;20041;-76
2023/04/30 09:58:55;;;;;;;5.55;2.05;;;14.70;99.90;;;;;;5057600;28;20428;-77
2023/04/30 10:01:25;;;;;;;4.05;2.30;;;14.90;99.90;;;;;;5052943;28;20517;-77
2023/04/30 10:03:51;;;;;;;7.50;2.25;;;15.00;99.90;;;;;;5052742;28;20077;-76
2023/04/30 10:06:19;;;;;;;7.50;2.53;;;15.10;99.90;;;;;;5053956;28;20052;-78
2023/04/30 10:08:52;;;;;;;6.63;2.15;;;15.10;99.90;;;;;;5052548;28;20037;-77
2023/04/30 10:11:20;;;;;;;5.50;2.30;;;15.10;99.90;;;;;;5052626;28;20523;-77
2023/04/30 10:13:50;;;;;;;7.63;2.45;;;15.20;99.90;;;;;;5052480;28;20041;-77
2023/04/30 10:16:21;;;;;;;8.82;2.40;;;15.30;99.90;;;;;;5052537;28;20080;-78
2023/04/30 10:18:49;;;;;;;8.15;2.83;;;15.20;99.90;;;;;;5052696;28;20171;-77
2023/04/30 10:21:17;;;;;;;9.80;4.07;;;15.40;99.90;;;;;;5053128;28;20041;-77
2023/04/30 10:23:43;;;;;;;5.93;2.83;;;15.60;99.90;;;;;;5051677;28;20120;-77
2023/04/30 10:26:13;;;;;;;6.80;2.40;;;15.70;99.90;;;;;;5052067;28;20076;-77
2023/04/30 10:28:40;;;;;;;6.90;2.90;;;15.80;99.90;;;;;;5052083;28;20052;-77
2023/04/30 10:31:09;;;;;;;7.95;3.33;;;15.90;99.90;;;;;;5054033;28;20037;-78
2023/04/30 10:33:48;;;;;;;4.82;2.55;;;16.10;99.90;;;;;;5054237;28;20481;-78
2023/04/30 10:36:23;;;;;;;6.97;3.03;;;16.20;99.90;;;;;;5052573;28;20457;-78
2023/04/30 10:38:49;;;;;;;7.55;3.20;;;16.20;99.90;;;;;;5053290;28;20055;-78
2023/04/30 10:41:14;;;;;;;7.63;2.67;;;15.70;99.90;;;;;;5052167;28;20120;-78
2023/04/30 10:43:40;;;;;;;5.93;2.55;;;15.80;99.90;;;;;;5052042;28;20036;-78
2023/04/30 10:46:07;;;;;;;5.93;2.60;;;15.90;99.90;;;;;;5051914;28;20041;-78
2023/04/30 10:48:34;;;;;;;6.22;2.40;;;16.10;99.90;;;;;;5051989;28;20063;-77
2023/04/30 10:51:00;;;;;;;6.60;2.88;;;16.10;99.90;;;;;;5058924;28;20044;-81
2023/04/30 10:53:30;;;;;;;8.55;2.33;;;16.20;99.90;;;;;;5061480;28;20035;-81
2023/04/30 10:56:05;;;;;;;4.70;2.83;;;16.20;99.90;;;;;;5065330;28;20052;-80
2023/04/30 10:58:33;;;;;;;6.57;2.72;;;16.30;99.90;;;;;;5066293;28;20098;-81
2023/04/30 11:01:10;;;;;;;6.00;2.63;;;16.40;99.90;;;;;;5057799;28;20049;-81
2023/04/30 11:03:37;;;;;;;7.90;2.60;;;16.40;99.90;;;;;;5058388;28;20041;-81
2023/04/30 11:06:12;;;;;;;7.22;2.22;;;16.50;99.90;;;;;;5060033;28;20041;-80
2023/04/30 11:08:41;;;;;;;6.72;2.50;;;16.60;99.90;;;;;;5060365;28;20044;-81
2023/04/30 11:11:08;;;;;;;8.13;2.50;;;16.80;99.90;;;;;;5057655;28;20036;-81
2023/04/30 11:13:43;;;;;;;8.18;2.53;;;16.60;99.90;;;;;;5058628;28;20037;-81
2023/04/30 11:16:09;;;;;;;5.85;2.10;;;16.90;99.90;;;;;;5057416;28;20374;-81
2023/04/30 11:18:44;;;;;;;4.68;2.58;;;17.00;99.90;;;;;;5056343;28;20423;-82
2023/04/30 11:21:10;;;;;;;5.22;2.22;;;17.10;99.90;;;;;;5057310;28;20033;-81
2023/04/30 11:23:39;;;;;;;5.85;2.40;;;17.10;99.90;;;;;;5060500;28;20045;-82
2023/04/30 11:26:06;;;;;;;3.20;1.92;;;17.10;99.90;;;;;;5059575;28;20049;-80
2023/04/30 11:28:34;;;;;;;4.63;2.20;;;17.20;99.90;;;;;;5057873;28;20029;-79
2023/04/30 11:31:00;;;;;;;6.10;2.40;;;17.40;99.90;;;;;;5057976;28;20052;-80
2023/04/30 11:33:31;;;;;;;6.22;2.30;;;17.50;99.90;;;;;;5061306;28;20037;-82
2023/04/30 11:35:58;;;;;;;5.10;2.50;;;17.60;99.90;;;;;;5059632;28;20037;-80
2023/04/30 11:38:34;;;;;;;5.63;2.05;;;17.90;99.90;;;;;;5058993;28;20044;-82
2023/04/30 11:41:01;;;;;;;5.80;2.10;;;18.20;99.90;;;;;;5056562;28;20106;-79
2023/04/30 11:43:28;;;;;;;4.82;2.30;;;18.20;99.90;;;;;;5051425;28;20511;-78
2023/04/30 11:46:08;;;;;;;6.70;2.50;;;18.20;99.90;;;;;;5051672;28;20072;-79
2023/04/30 11:48:38;;;;;;;4.85;2.15;;;18.20;99.90;;;;;;5051675;28;20124;-79
2023/04/30 11:51:13;;;;;;;5.47;2.30;;;18.30;99.90;;;;;;5054444;28;20400;-79
2023/04/30 11:53:38;;;;;;;4.15;2.28;;;18.40;99.90;;;;;;5056858;28;20037;-80
2023/04/30 11:56:11;;;;;;;4.68;1.90;;;18.30;99.90;;;;;;5139521;27;20440;-80
2023/04/30 11:58:38;;;;;;;8.27;2.80;;;18.50;99.90;;;;;;5127927;28;20430;-81
2023/04/30 12:01:10;;;;;;;4.85;2.00;;;18.40;99.90;;;;;;5123085;28;20040;-82
2023/04/30 12:03:47;;;;;;;6.18;2.10;;;18.50;99.90;;;;;;5106326;28;20443;-79
2023/04/30 12:06:23;;;;;;;8.10;2.20;;;18.30;99.90;;;;;;5119589;28;20050;-79
2023/04/30 12:08:52;;;;;;;4.45;2.17;;;18.60;99.90;;;;;;5091442;28;20091;-81
2023/04/30 12:11:24;;;;;;;4.07;1.90;;;18.70;99.90;;;;;;5122425;28;20127;-83
2023/04/30 12:13:54;;;;;;;3.60;2.05;;;18.90;99.90;;;;;;5105422;28;20449;-81
2023/04/30 12:16:20;;;;;;;3.40;1.60;;;19.00;99.90;;;;;;5121823;28;20082;-81
2023/04/30 12:18:46;;;;;;;3.95;1.90;;;19.20;99.90;;;;;;5122283;28;20306;-78
2023/04/30 12:21:12;;;;;;;5.50;2.03;;;19.30;99.90;;;;;;5117586;28;20043;-81
2023/04/30 12:23:38;;;;;;;3.83;2.00;;;19.30;99.90;;;;;;5083879;28;20044;-81
2023/04/30 12:26:04;;;;;;;3.55;1.40;;;19.30;99.90;;;;;;5114802;28;20057;-81
2023/04/30 12:28:29;;;;;;;3.67;1.90;;;19.40;99.90;;;;;;5119818;28;20043;-80
2023/04/30 12:30:55;;;;;;;4.18;2.05;;;19.60;99.90;;;;;;5103410;28;20039;-82
2023/04/30 12:33:20;;;;;;;4.03;2.03;;;19.60;99.90;;;;;;5122426;28;20044;-82
2023/04/30 12:35:46;;;;;;;6.35;2.50;;;19.60;99.90;;;;;;5119061;28;20048;-82
2023/04/30 12:38:15;;;;;;;7.10;2.40;;;19.70;99.90;;;;;;5120654;28;20088;-79
2023/04/30 12:40:46;;;;;;;4.05;1.70;;;19.70;99.90;;;;;;5120366;28;20418;-81
2023/04/30 12:43:15;;;;;;;5.70;1.90;;;20.00;99.90;;;;;;5117919;28;20039;-80
2023/04/30 12:45:51;;;;;;;3.83;1.50;;;20.10;99.90;;;;;;5118818;28;20516;-80
2023/04/30 12:48:19;;;;;;;2.35;1.30;;;20.10;99.90;;;;;;5121134;28;20040;-82
2023/04/30 12:50:55;;;;;;;3.22;1.77;;;20.10;99.90;;;;;;5118904;28;20079;-79
2023/04/30 12:53:22;;;;;;;3.72;1.70;;;20.10;99.90;;;;;;5120807;28;20040;-80